Time;durP1;ratioP1;P1;durP2;ratioP2;P2;SDS_P1;SDS_P2;PMS_P1;PMS_P2;Temp;Humidity;BMP_temperature;BMP_pressure;BME280_temperature;BME280_humidity;BME280_pressure;Samples;Min_cycle;Max_cycle;Signal;HPM_P1;HPM_P2
2022/12/28 00:00:53;;;;;;;1.17;0.52;;;17.90;71.20;;;;;;5070912;28;20052;-12
2022/12/28 00:03:18;;;;;;;0.73;0.50;;;18.00;71.30;;;;;;5068822;28;20043;-14
2022/12/28 00:05:44;;;;;;;0.65;0.50;;;18.00;71.00;;;;;;5070309;28;20527;-12
2022/12/28 00:08:10;;;;;;;1.15;0.60;;;18.00;70.90;;;;;;5068953;28;20493;-11
2022/12/28 00:10:35;;;;;;;0.85;0.63;;;18.00;70.90;;;;;;5069808;28;20135;-18
2022/12/28 00:13:01;;;;;;;0.98;0.70;;;18.00;70.70;;;;;;5071670;28;20138;-12
2022/12/28 00:15:26;;;;;;;0.50;0.50;;;18.00;71.00;;;;;;5065116;28;20083;-12
2022/12/28 00:17:52;;;;;;;1.60;0.63;;;17.90;70.90;;;;;;5073231;28;20074;-14
2022/12/28 00:20:17;;;;;;;1.05;0.50;;;17.80;71.00;;;;;;5067783;28;20060;-12
2022/12/28 00:22:43;;;;;;;0.73;0.60;;;17.80;71.20;;;;;;5073915;28;20116;-12
2022/12/28 00:25:09;;;;;;;0.85;0.80;;;17.80;71.30;;;;;;5070805;28;20577;-12
2022/12/28 00:27:34;;;;;;;0.80;0.80;;;17.70;71.40;;;;;;5072064;28;20052;-12
2022/12/28 00:30:00;;;;;;;1.63;1.00;;;17.80;71.50;;;;;;5070681;28;20048;-13
2022/12/28 00:32:26;;;;;;;2.03;1.00;;;17.80;71.50;;;;;;5072434;28;20047;-15
2022/12/28 00:34:51;;;;;;;1.10;1.00;;;17.70;71.30;;;;;;5072371;28;20071;-14
2022/12/28 00:37:17;;;;;;;1.02;1.02;;;17.70;71.50;;;;;;5072187;28;20056;-13
2022/12/28 00:39:42;;;;;;;1.10;1.10;;;17.70;71.40;;;;;;5070554;28;20097;-14
2022/12/28 00:42:08;;;;;;;1.23;1.13;;;17.70;71.40;;;;;;5069721;28;20044;-18
2022/12/28 00:44:34;;;;;;;1.20;1.10;;;17.70;71.50;;;;;;5066672;28;20079;-14
2022/12/28 00:46:59;;;;;;;1.13;1.10;;;17.70;71.30;;;;;;5067972;28;20473;-21
2022/12/28 00:49:25;;;;;;;1.38;1.27;;;17.70;71.50;;;;;;5068754;28;20043;-13
2022/12/28 00:51:50;;;;;;;1.40;1.30;;;17.70;71.30;;;;;;5070402;28;20044;-12
2022/12/28 00:54:17;;;;;;;1.67;1.48;;;17.70;71.30;;;;;;5069818;28;20048;-12
2022/12/28 00:56:42;;;;;;;1.45;1.35;;;17.70;71.20;;;;;;5075000;28;20094;-15
2022/12/28 00:59:08;;;;;;;1.50;1.40;;;17.70;71.10;;;;;;5067030;28;20132;-39
2022/12/28 01:01:34;;;;;;;1.58;1.48;;;17.70;70.90;;;;;;5066438;28;20075;-38
2022/12/28 01:03:59;;;;;;;2.20;1.40;;;17.70;71.00;;;;;;5061697;28;20064;-40
2022/12/28 01:06:25;;;;;;;2.03;1.40;;;17.80;70.90;;;;;;5070878;28;20053;-39
2022/12/28 01:08:51;;;;;;;1.15;1.10;;;17.70;71.00;;;;;;5068055;28;20040;-40
2022/12/28 01:11:19;;;;;;;1.70;1.20;;;17.70;70.90;;;;;;5070235;28;20044;-38
2022/12/28 01:13:44;;;;;;;1.35;1.25;;;17.70;71.10;;;;;;5072727;28;20044;-37
2022/12/28 01:16:30;;;;;;;1.45;1.35;;;17.70;71.10;;;;;;5066889;28;20113;-40
2022/12/28 01:18:57;;;;;;;1.77;1.65;;;17.70;71.20;;;;;;5075396;28;20041;-36
2022/12/28 01:21:24;;;;;;;1.88;1.08;;;17.70;71.10;;;;;;5071517;28;20044;-40
2022/12/28 01:23:52;;;;;;;1.52;1.23;;;17.70;70.80;;;;;;5070748;28;20056;-39
2022/12/28 01:26:18;;;;;;;1.45;1.27;;;17.80;70.70;;;;;;5070553;28;20059;-38
2022/12/28 01:28:43;;;;;;;1.55;1.30;;;17.70;70.60;;;;;;5074040;28;20037;-37
2022/12/28 01:31:14;;;;;;;1.30;1.23;;;17.80;70.60;;;;;;5070044;28;20177;-42
2022/12/28 01:33:40;;;;;;;1.38;1.13;;;17.80;70.50;;;;;;5067473;28;20323;-39
2022/12/28 01:36:19;;;;;;;1.40;1.30;;;17.80;70.20;;;;;;5070377;28;20744;-38
2022/12/28 01:38:45;;;;;;;2.75;1.45;;;17.80;70.40;;;;;;5072111;28;20042;-42
2022/12/28 01:41:13;;;;;;;1.50;1.35;;;17.80;70.50;;;;;;5069296;28;20426;-38
2022/12/28 01:43:46;;;;;;;1.50;1.30;;;17.80;70.50;;;;;;5060718;28;20047;-38
2022/12/28 01:46:15;;;;;;;1.30;1.20;;;17.80;70.20;;;;;;5069881;28;20052;-39
2022/12/28 01:48:51;;;;;;;1.20;1.10;;;17.80;70.30;;;;;;5048220;28;20064;-39
2022/12/28 01:51:17;;;;;;;1.30;1.20;;;17.80;70.40;;;;;;5069168;28;20049;-39
2022/12/28 01:53:42;;;;;;;1.67;1.30;;;17.70;70.30;;;;;;5065140;28;20417;-39
2022/12/28 01:56:08;;;;;;;2.45;1.30;;;17.70;70.40;;;;;;5082193;28;20036;-37
2022/12/28 01:58:33;;;;;;;1.50;1.40;;;17.80;71.00;;;;;;5062863;28;20055;-33
2022/12/28 02:00:59;;;;;;;1.35;1.25;;;17.80;70.30;;;;;;5061956;28;20044;-40
2022/12/28 02:03:26;;;;;;;1.52;1.25;;;17.70;70.30;;;;;;5070888;28;20028;-38
2022/12/28 02:05:52;;;;;;;1.17;1.10;;;17.70;71.30;;;;;;5065747;28;20040;-37
2022/12/28 02:08:25;;;;;;;1.35;1.25;;;17.70;70.70;;;;;;5061435;28;21803;-38
2022/12/28 02:10:51;;;;;;;1.20;1.10;;;17.70;70.60;;;;;;5082611;28;20028;-40
2022/12/28 02:13:17;;;;;;;1.48;1.38;;;17.70;70.40;;;;;;5074324;28;20050;-15
2022/12/28 02:15:42;;;;;;;0.98;0.98;;;17.80;70.20;;;;;;5066610;28;20131;-40
2022/12/28 02:18:08;;;;;;;1.35;1.25;;;17.70;70.20;;;;;;5073209;28;20048;-40
2022/12/28 02:20:58;;;;;;;1.40;1.30;;;17.70;70.40;;;;;;5067017;28;20033;-33
2022/12/28 02:23:33;;;;;;;2.63;1.90;;;17.70;70.40;;;;;;5094369;28;20500;-40
2022/12/28 02:26:27;;;;;;;1.60;1.08;;;17.70;70.50;;;;;;5072824;28;20102;-39
2022/12/28 02:29:26;;;;;;;1.90;1.45;;;17.70;70.40;;;;;;5029174;28;20046;-42
2022/12/28 02:32:14;;;;;;;1.10;1.00;;;17.70;70.40;;;;;;5070441;28;20045;-38
2022/12/28 02:34:54;;;;;;;1.05;1.05;;;17.70;70.40;;;;;;5063104;28;20083;-36
2022/12/28 02:37:26;;;;;;;1.10;1.10;;;17.60;70.50;;;;;;5067381;28;20513;-37
2022/12/28 02:39:54;;;;;;;1.38;1.27;;;17.70;70.60;;;;;;5067320;28;20524;-39
2022/12/28 02:42:20;;;;;;;1.00;1.00;;;17.60;70.40;;;;;;5067324;28;20037;-35
2022/12/28 02:50:14;;;;;;;1.05;1.00;;;17.70;71.20;;;;;;5069056;28;20106;-38
2022/12/28 02:53:01;;;;;;;1.42;1.33;;;17.70;70.40;;;;;;5067702;28;20072;-38
2022/12/28 02:58:38;;;;;;;0.98;0.93;;;17.70;70.50;;;;;;5066328;28;20044;-34
2022/12/28 03:01:21;;;;;;;1.00;1.00;;;17.70;70.50;;;;;;5074560;28;20042;-40
2022/12/28 03:04:05;;;;;;;1.10;1.00;;;17.70;70.50;;;;;;5070821;28;20056;-38
2022/12/28 03:09:45;;;;;;;0.90;0.90;;;17.60;70.40;;;;;;5069728;28;20063;-39
2022/12/28 03:12:18;;;;;;;0.90;0.80;;;17.60;70.40;;;;;;5069425;28;20493;-40
2022/12/28 03:14:48;;;;;;;1.10;1.00;;;17.70;70.10;;;;;;5067173;28;20166;-38
2022/12/28 03:31:06;;;;;;;0.80;0.80;;;17.60;70.70;;;;;;5037932;28;20486;-41
2022/12/28 03:33:37;;;;;;;0.90;0.90;;;17.60;70.60;;;;;;5067532;28;20069;-39
2022/12/28 03:36:08;;;;;;;0.80;0.80;;;17.60;70.60;;;;;;5051839;28;20131;-38
2022/12/28 03:38:58;;;;;;;0.82;0.82;;;17.60;71.10;;;;;;5083498;28;20402;-42
2022/12/28 03:44:36;;;;;;;1.48;0.90;;;17.50;70.60;;;;;;5052507;28;20051;-39
2022/12/28 03:47:07;;;;;;;1.17;0.70;;;17.60;70.60;;;;;;5067083;28;20036;-38
2022/12/28 03:49:32;;;;;;;1.50;0.85;;;17.60;70.60;;;;;;5066088;28;20043;-42
2022/12/28 03:51:58;;;;;;;0.90;0.90;;;17.60;70.50;;;;;;5086491;28;20044;-39
2022/12/28 03:54:23;;;;;;;0.80;0.80;;;17.70;70.30;;;;;;5055430;28;20070;-40
2022/12/28 03:56:50;;;;;;;2.03;1.30;;;17.60;70.30;;;;;;5070137;28;20040;-42
2022/12/28 03:59:16;;;;;;;0.80;0.80;;;17.60;70.40;;;;;;5068377;28;20036;-44
2022/12/28 04:01:41;;;;;;;0.85;0.80;;;17.70;70.30;;;;;;5073229;28;20051;-35
2022/12/28 04:04:07;;;;;;;0.70;0.70;;;17.60;70.30;;;;;;5072959;28;20422;-40
2022/12/28 04:06:32;;;;;;;0.80;0.80;;;17.60;70.50;;;;;;5070921;28;20169;-39
2022/12/28 04:08:58;;;;;;;0.82;0.80;;;17.60;70.70;;;;;;5072612;28;20044;-38
2022/12/28 04:11:24;;;;;;;0.73;0.60;;;17.60;70.30;;;;;;5073619;28;20068;-39
2022/12/28 04:13:50;;;;;;;0.80;0.80;;;17.60;70.10;;;;;;5070909;28;20040;-39
2022/12/28 04:16:15;;;;;;;0.60;0.60;;;17.60;70.30;;;;;;5071085;28;20045;-39
2022/12/28 04:18:41;;;;;;;0.90;0.70;;;17.60;70.40;;;;;;5075036;28;20033;-37
2022/12/28 04:21:07;;;;;;;2.20;0.70;;;17.60;70.30;;;;;;5074186;28;20516;-37
2022/12/28 04:23:33;;;;;;;0.85;0.85;;;17.50;70.30;;;;;;5073246;28;20049;-39
2022/12/28 04:26:10;;;;;;;1.95;0.63;;;17.60;70.40;;;;;;5075666;28;20421;-40
2022/12/28 04:28:36;;;;;;;1.13;0.88;;;17.50;70.40;;;;;;5071764;28;20052;-37
2022/12/28 04:31:01;;;;;;;2.65;0.68;;;17.60;70.40;;;;;;5072118;28;20043;-37
2022/12/28 04:33:27;;;;;;;0.60;0.60;;;17.60;70.40;;;;;;5073383;28;20504;-38
2022/12/28 04:35:53;;;;;;;1.05;0.93;;;17.60;70.20;;;;;;5076743;28;20040;-38
2022/12/28 04:38:19;;;;;;;0.57;0.52;;;17.60;70.30;;;;;;5071914;28;20048;-37
2022/12/28 04:40:44;;;;;;;1.20;1.10;;;17.50;70.30;;;;;;5072152;28;23380;-39
2022/12/28 04:43:10;;;;;;;0.93;0.90;;;17.50;70.40;;;;;;5074641;28;20043;-38
2022/12/28 04:45:35;;;;;;;0.82;0.60;;;17.60;70.30;;;;;;5073893;28;20051;-35
2022/12/28 04:48:01;;;;;;;0.68;0.68;;;17.50;70.30;;;;;;5070239;28;20052;-35
2022/12/28 04:50:27;;;;;;;0.65;0.63;;;17.60;70.20;;;;;;5071205;28;20044;-39
2022/12/28 04:52:53;;;;;;;1.10;0.90;;;17.60;70.40;;;;;;5072588;28;20044;-39
2022/12/28 04:55:18;;;;;;;0.55;0.55;;;17.60;70.30;;;;;;5067618;28;20045;-43
2022/12/28 04:57:44;;;;;;;0.70;0.65;;;17.60;71.10;;;;;;5074371;28;20181;-40
2022/12/28 05:00:11;;;;;;;0.70;0.70;;;17.60;70.30;;;;;;5073351;28;20416;-41
2022/12/28 05:02:36;;;;;;;0.70;0.70;;;17.50;70.30;;;;;;5071281;28;20078;-38
2022/12/28 05:05:02;;;;;;;0.50;0.50;;;17.50;70.40;;;;;;5073084;28;20512;-40
2022/12/28 05:07:28;;;;;;;0.60;0.55;;;17.50;70.30;;;;;;5068642;28;20039;-37
2022/12/28 05:09:53;;;;;;;0.80;0.68;;;17.50;70.40;;;;;;5071186;28;20067;-34
2022/12/28 05:12:19;;;;;;;0.75;0.60;;;17.50;70.40;;;;;;5070280;28;20052;-38
2022/12/28 05:14:45;;;;;;;0.63;0.60;;;17.50;70.50;;;;;;5072474;28;20051;-38
2022/12/28 05:17:11;;;;;;;0.45;0.40;;;17.50;70.40;;;;;;5072261;28;20040;-42
2022/12/28 05:19:36;;;;;;;0.77;0.60;;;17.50;70.50;;;;;;5071305;28;20068;-40
2022/12/28 05:22:02;;;;;;;0.60;0.60;;;17.50;70.50;;;;;;5084834;28;20089;-42
2022/12/28 05:24:27;;;;;;;0.60;0.40;;;17.50;70.40;;;;;;5067552;28;20048;-25
2022/12/28 05:26:53;;;;;;;0.95;0.63;;;17.50;70.40;;;;;;5072768;28;20466;-39
2022/12/28 05:29:18;;;;;;;0.52;0.52;;;17.60;71.10;;;;;;5072828;28;20054;-37
2022/12/28 05:31:44;;;;;;;0.50;0.50;;;17.60;70.20;;;;;;5068256;28;20394;-40
2022/12/28 05:34:10;;;;;;;0.98;0.90;;;17.50;70.10;;;;;;5067827;28;20048;-42
2022/12/28 05:36:36;;;;;;;0.63;0.63;;;17.50;70.40;;;;;;5065908;28;20045;-39
2022/12/28 05:39:02;;;;;;;0.90;0.40;;;17.50;70.20;;;;;;5070489;28;20041;-39
2022/12/28 05:41:28;;;;;;;0.55;0.55;;;17.50;70.30;;;;;;5082465;28;20461;-40
2022/12/28 05:43:54;;;;;;;0.90;0.50;;;17.50;70.30;;;;;;5061204;28;20078;-39
2022/12/28 05:46:25;;;;;;;1.13;0.63;;;17.50;70.40;;;;;;5061740;28;20079;-38
2022/12/28 05:48:51;;;;;;;1.15;0.60;;;17.40;70.30;;;;;;5050197;28;20048;-38
2022/12/28 05:51:18;;;;;;;0.60;0.60;;;17.40;70.40;;;;;;5048667;28;23574;-40
2022/12/28 05:53:44;;;;;;;1.30;0.70;;;17.50;70.20;;;;;;5061779;28;20032;-40
2022/12/28 05:56:12;;;;;;;0.90;0.65;;;17.50;70.30;;;;;;5043929;28;20044;-35
2022/12/28 05:58:37;;;;;;;0.55;0.50;;;17.50;70.50;;;;;;5059853;28;21029;-37
2022/12/28 06:01:11;;;;;;;0.57;0.52;;;17.40;70.50;;;;;;5061308;28;20545;-40
2022/12/28 06:03:36;;;;;;;0.60;0.50;;;17.40;70.60;;;;;;5058686;28;20456;-36
2022/12/28 06:06:14;;;;;;;0.45;0.40;;;17.40;70.50;;;;;;5055612;28;20044;-40
2022/12/28 06:08:40;;;;;;;0.40;0.40;;;17.40;70.50;;;;;;5050103;28;20049;-43
2022/12/28 06:11:07;;;;;;;0.47;0.47;;;17.40;70.50;;;;;;5059864;28;20052;-38
2022/12/28 06:13:33;;;;;;;0.52;0.50;;;17.50;70.50;;;;;;5055041;28;20437;-39
2022/12/28 06:15:58;;;;;;;0.60;0.50;;;17.40;70.30;;;;;;5060230;28;20052;-39
2022/12/28 06:18:27;;;;;;;0.45;0.32;;;17.50;70.30;;;;;;5061769;28;20032;-39
2022/12/28 06:20:52;;;;;;;0.50;0.50;;;17.50;70.30;;;;;;5044776;28;20478;-37
2022/12/28 06:23:18;;;;;;;0.88;0.50;;;17.40;70.30;;;;;;5060037;28;20039;-36
2022/12/28 06:25:44;;;;;;;0.73;0.60;;;17.50;70.40;;;;;;5049839;28;20029;-38
2022/12/28 06:28:09;;;;;;;1.80;0.40;;;17.40;70.40;;;;;;5056065;28;20041;-39
2022/12/28 06:30:35;;;;;;;0.50;0.50;;;17.50;70.40;;;;;;5060446;28;20506;-37
2022/12/28 06:33:00;;;;;;;0.55;0.40;;;17.50;70.30;;;;;;5062811;28;20044;-39
2022/12/28 06:35:26;;;;;;;1.58;0.55;;;17.40;70.40;;;;;;5058381;28;20048;-39
2022/12/28 06:37:51;;;;;;;0.60;0.40;;;17.40;70.50;;;;;;5061268;28;20140;-36
2022/12/28 06:40:17;;;;;;;0.50;0.47;;;17.40;70.40;;;;;;5054268;28;20079;-35
2022/12/28 06:42:42;;;;;;;0.35;0.35;;;17.40;70.50;;;;;;5057553;28;20132;-36
2022/12/28 06:45:08;;;;;;;0.63;0.47;;;17.40;70.40;;;;;;5074103;28;20497;-40
2022/12/28 06:47:35;;;;;;;1.17;0.63;;;17.50;70.30;;;;;;5069749;28;20044;-40
2022/12/28 06:50:01;;;;;;;1.23;0.80;;;17.40;70.30;;;;;;5070833;28;20501;-39
2022/12/28 06:52:27;;;;;;;1.02;0.50;;;17.40;70.30;;;;;;5075346;28;20124;-39
2022/12/28 06:54:52;;;;;;;0.45;0.30;;;17.40;70.20;;;;;;5073893;28;20045;-40
2022/12/28 06:57:18;;;;;;;0.68;0.45;;;17.40;70.40;;;;;;5073173;28;20066;-35
2022/12/28 06:59:44;;;;;;;1.05;0.80;;;17.40;70.30;;;;;;5073077;28;20044;-37
2022/12/28 07:02:10;;;;;;;0.65;0.40;;;17.40;70.20;;;;;;5071890;28;20037;-38
2022/12/28 07:04:35;;;;;;;0.43;0.40;;;17.50;70.10;;;;;;5072545;28;20122;-39
2022/12/28 07:07:01;;;;;;;1.73;0.50;;;17.40;70.20;;;;;;5075552;28;20047;-40
2022/12/28 07:09:26;;;;;;;0.88;0.40;;;17.30;70.50;;;;;;5074881;28;20044;-34
2022/12/28 07:11:52;;;;;;;0.70;0.68;;;17.40;70.70;;;;;;5071522;28;20045;-40
2022/12/28 07:14:18;;;;;;;2.75;0.55;;;17.30;70.80;;;;;;5069314;28;20028;-39
2022/12/28 07:16:43;;;;;;;1.67;0.30;;;17.20;71.00;;;;;;5076274;28;20036;-36
2022/12/28 07:19:09;;;;;;;0.40;0.30;;;17.30;70.90;;;;;;5074672;28;20052;-42
2022/12/28 07:21:36;;;;;;;0.40;0.30;;;17.40;70.70;;;;;;5072591;28;20115;-33
2022/12/28 07:24:03;;;;;;;0.50;0.40;;;17.40;70.50;;;;;;5071932;28;20040;-40
2022/12/28 07:26:29;;;;;;;0.77;0.50;;;17.30;70.70;;;;;;5076082;28;20040;-40
2022/12/28 07:28:56;;;;;;;2.45;1.48;;;17.40;70.70;;;;;;5061919;28;20052;-40
2022/12/28 07:31:24;;;;;;;8.65;5.55;;;17.30;70.80;;;;;;5073473;28;20040;-39
2022/12/28 07:33:50;;;;;;;11.05;7.03;;;17.30;70.80;;;;;;5075015;28;20082;-39
2022/12/28 07:36:17;;;;;;;7.03;4.50;;;17.20;71.00;;;;;;5075389;28;20043;-37
2022/12/28 07:38:43;;;;;;;6.13;5.03;;;17.30;70.90;;;;;;5084047;28;20043;-39
2022/12/28 07:41:40;;;;;;;10.77;6.43;;;17.20;71.80;;;;;;5084252;28;20489;-40
2022/12/28 07:44:06;;;;;;;19.77;11.05;;;17.20;71.10;;;;;;5052512;28;20040;-39
2022/12/28 07:46:33;;;;;;;42.03;21.52;;;17.30;70.90;;;;;;5070203;28;20037;-38
2022/12/28 07:48:59;;;;;;;51.33;24.92;;;17.40;70.80;;;;;;5073836;28;20052;-40
2022/12/28 07:51:30;;;;;;;48.78;25.55;;;17.40;70.60;;;;;;5083464;28;20036;-36
2022/12/28 07:53:56;;;;;;;39.83;21.48;;;17.40;70.80;;;;;;5072888;28;20035;-40
2022/12/28 07:56:21;;;;;;;41.75;21.88;;;17.40;70.50;;;;;;5068621;28;20039;-37
2022/12/28 07:58:55;;;;;;;36.22;19.83;;;17.50;70.50;;;;;;5069803;28;20041;-37
2022/12/28 08:01:22;;;;;;;36.53;19.33;;;17.30;70.90;;;;;;5072133;28;20024;-38
2022/12/28 08:03:47;;;;;;;30.50;17.42;;;17.30;71.10;;;;;;5067415;28;20074;-35
2022/12/28 08:06:14;;;;;;;26.80;14.55;;;17.20;71.10;;;;;;5080138;28;20051;-39
2022/12/28 08:08:41;;;;;;;24.60;13.32;;;17.20;71.20;;;;;;5053402;28;20031;-41
2022/12/28 08:11:16;;;;;;;19.27;12.07;;;17.20;71.40;;;;;;5051160;28;20044;-37
2022/12/28 08:13:42;;;;;;;21.23;11.63;;;17.20;71.40;;;;;;5064185;28;20067;-37
2022/12/28 08:16:10;;;;;;;18.25;10.75;;;17.20;71.40;;;;;;5066577;28;20041;-39
2022/12/28 08:18:35;;;;;;;20.10;11.57;;;17.20;71.30;;;;;;5060271;28;20036;-39
2022/12/28 08:21:09;;;;;;;19.23;10.90;;;17.20;71.40;;;;;;5071692;28;20067;-39
2022/12/28 08:23:35;;;;;;;16.67;9.95;;;17.20;71.70;;;;;;5073467;28;20064;-40
2022/12/28 08:26:30;;;;;;;19.77;11.25;;;17.20;71.70;;;;;;5074995;28;20120;-38
2022/12/28 08:28:57;;;;;;;18.38;10.00;;;17.40;71.40;;;;;;5066656;28;20097;-40
2022/12/28 08:31:25;;;;;;;12.82;8.90;;;17.50;71.10;;;;;;5073541;28;20043;-39
2022/12/28 08:33:51;;;;;;;13.57;8.82;;;17.40;71.40;;;;;;5069393;28;20040;-43
2022/12/28 08:36:17;;;;;;;14.70;8.95;;;17.30;71.60;;;;;;5067794;28;20035;-38
2022/12/28 08:38:43;;;;;;;16.90;9.38;;;17.30;71.80;;;;;;5073099;28;20123;-39
2022/12/28 08:41:20;;;;;;;15.93;8.95;;;17.30;71.60;;;;;;5060663;28;20094;-37
2022/12/28 08:43:47;;;;;;;14.90;8.65;;;17.40;71.50;;;;;;5077726;28;20102;-40
2022/12/28 08:46:17;;;;;;;13.55;8.25;;;17.40;71.40;;;;;;5060479;28;20091;-39
2022/12/28 08:48:43;;;;;;;12.27;8.35;;;17.40;71.50;;;;;;5073329;28;20078;-39
2022/12/28 08:51:13;;;;;;;11.95;7.95;;;17.40;71.70;;;;;;5061474;28;20529;-39
2022/12/28 08:53:39;;;;;;;12.95;7.60;;;17.40;71.70;;;;;;5062098;28;20489;-40
2022/12/28 08:56:06;;;;;;;10.80;7.82;;;17.40;72.10;;;;;;5053567;28;20036;-40
2022/12/28 08:58:32;;;;;;;13.13;7.22;;;17.40;72.20;;;;;;5063076;28;20035;-39
2022/12/28 09:01:21;;;;;;;11.68;7.95;;;17.50;72.10;;;;;;5064712;28;20028;-38
2022/12/28 09:03:47;;;;;;;14.38;7.65;;;17.40;73.20;;;;;;5063356;28;20033;-39
2022/12/28 09:06:17;;;;;;;11.77;7.47;;;17.50;72.50;;;;;;5065822;28;20033;-36
2022/12/28 09:08:43;;;;;;;11.60;7.78;;;17.50;72.20;;;;;;5064794;28;20497;-39
2022/12/28 09:11:10;;;;;;;9.98;6.90;;;17.60;72.20;;;;;;5069954;28;20044;-36
2022/12/28 09:13:36;;;;;;;10.77;6.55;;;17.60;72.30;;;;;;5068473;28;20056;-44
2022/12/28 09:16:04;;;;;;;9.32;5.63;;;17.60;73.20;;;;;;5074683;28;20075;-40
2022/12/28 09:18:30;;;;;;;7.35;5.32;;;17.60;73.00;;;;;;5065324;28;20612;-34
2022/12/28 09:20:55;;;;;;;7.70;5.70;;;17.60;72.80;;;;;;5069286;28;20029;-38
2022/12/28 09:23:21;;;;;;;7.72;5.05;;;17.60;72.90;;;;;;5064705;28;20021;-33
2022/12/28 09:25:47;;;;;;;9.45;5.53;;;17.60;72.80;;;;;;5068583;28;20464;-34
2022/12/28 09:28:12;;;;;;;8.07;5.75;;;17.70;72.40;;;;;;5066975;28;20059;-42
2022/12/28 09:30:38;;;;;;;9.00;6.07;;;17.60;72.90;;;;;;5065585;28;20145;-39
2022/12/28 09:35:47;;;;;;;7.80;4.88;;;17.60;73.20;;;;;;5078651;28;20084;-44
2022/12/28 09:38:13;;;;;;;7.00;5.60;;;17.60;73.10;;;;;;5068045;28;20127;-39
2022/12/28 09:40:39;;;;;;;5.93;4.95;;;17.60;73.20;;;;;;5069974;28;20424;-39
2022/12/28 09:43:04;;;;;;;7.93;5.82;;;17.50;73.30;;;;;;5070851;28;20127;-39
2022/12/28 09:45:30;;;;;;;6.88;4.80;;;17.50;73.20;;;;;;5074573;28;20608;-39
2022/12/28 09:48:03;;;;;;;7.10;5.53;;;17.50;74.00;;;;;;5077506;28;20041;-35
2022/12/28 09:50:30;;;;;;;7.70;5.45;;;17.60;73.40;;;;;;5072812;28;20040;-41
2022/12/28 09:53:14;;;;;;;8.27;5.50;;;17.60;73.00;;;;;;5054539;28;20516;-40
2022/12/28 09:55:42;;;;;;;7.75;4.63;;;17.70;72.90;;;;;;5045727;28;20099;-40
2022/12/28 09:58:14;;;;;;;5.20;4.32;;;17.70;72.60;;;;;;5072749;28;20052;-38
2022/12/28 10:00:56;;;;;;;6.57;4.82;;;17.70;72.60;;;;;;5073819;28;20042;-45
2022/12/28 10:03:36;;;;;;;6.07;4.40;;;17.60;72.90;;;;;;5060274;28;20441;-42
2022/12/28 10:06:02;;;;;;;5.85;4.22;;;17.70;72.70;;;;;;5062185;28;20032;-43
2022/12/28 10:08:27;;;;;;;5.82;4.68;;;17.80;72.20;;;;;;5047282;28;20029;-41
2022/12/28 10:10:54;;;;;;;6.43;5.10;;;17.60;72.70;;;;;;5069158;28;20044;-41
2022/12/28 10:13:28;;;;;;;5.20;4.32;;;17.50;73.20;;;;;;5043630;28;20067;-40
2022/12/28 10:15:53;;;;;;;6.65;4.15;;;17.50;73.40;;;;;;5064321;28;20041;-38
2022/12/28 10:18:24;;;;;;;5.07;4.18;;;17.50;73.40;;;;;;5062501;28;20510;-41
2022/12/28 10:20:49;;;;;;;5.88;3.97;;;17.40;73.40;;;;;;5070592;28;20113;-38
2022/12/28 10:23:18;;;;;;;4.43;3.70;;;17.50;73.40;;;;;;5078944;28;20455;-37
2022/12/28 10:25:43;;;;;;;5.82;4.38;;;17.50;73.60;;;;;;5062148;28;20036;-43
2022/12/28 10:28:09;;;;;;;5.68;4.03;;;17.40;73.50;;;;;;5060918;28;20040;-41
2022/12/28 10:30:48;;;;;;;4.63;3.58;;;17.50;73.60;;;;;;5069116;28;20048;-38
2022/12/28 10:33:17;;;;;;;5.63;3.83;;;17.50;73.60;;;;;;5053810;28;20041;-41
2022/12/28 10:35:50;;;;;;;4.22;3.83;;;17.50;73.50;;;;;;5064972;28;20088;-43
2022/12/28 10:38:22;;;;;;;3.95;3.17;;;17.50;73.60;;;;;;5067535;28;20043;-41
2022/12/28 10:41:00;;;;;;;4.20;3.63;;;17.50;73.50;;;;;;5066681;28;20040;-45
2022/12/28 10:43:36;;;;;;;4.88;3.60;;;17.60;73.40;;;;;;5070900;28;20048;-42
2022/12/28 10:46:02;;;;;;;3.72;3.30;;;17.60;73.30;;;;;;5054522;28;20098;-41
2022/12/28 10:48:30;;;;;;;5.68;3.90;;;17.60;73.40;;;;;;5051693;28;20069;-41
2022/12/28 10:51:18;;;;;;;5.90;3.90;;;17.50;73.10;;;;;;5064169;28;20060;-41
2022/12/28 10:53:45;;;;;;;3.75;3.42;;;17.70;73.00;;;;;;5072903;28;20115;-40
2022/12/28 10:56:13;;;;;;;4.18;3.47;;;17.60;72.80;;;;;;5081267;28;20062;-40
2022/12/28 10:58:39;;;;;;;4.40;2.92;;;17.60;72.80;;;;;;5083502;28;20053;-40
2022/12/28 11:01:26;;;;;;;3.75;3.20;;;17.60;72.70;;;;;;5081098;28;20106;-40
2022/12/28 11:03:55;;;;;;;3.45;2.95;;;17.70;72.70;;;;;;5079165;28;20041;-38
2022/12/28 11:06:25;;;;;;;5.65;2.97;;;17.60;73.10;;;;;;5078881;28;20036;-40
2022/12/28 11:09:11;;;;;;;3.80;2.70;;;17.60;73.10;;;;;;5073523;28;20044;-41
2022/12/28 11:11:37;;;;;;;3.92;2.88;;;17.70;72.90;;;;;;5063231;28;20072;-40
2022/12/28 11:14:24;;;;;;;5.18;2.70;;;17.60;73.00;;;;;;5047529;28;20493;-40
2022/12/28 11:16:49;;;;;;;3.28;2.85;;;17.60;73.00;;;;;;5049720;28;20116;-40
2022/12/28 11:19:15;;;;;;;3.54;2.61;;;17.60;73.00;;;;;;4713991;28;10000705;-40
2022/12/28 11:21:41;;;;;;;2.78;2.42;;;17.80;73.10;;;;;;5065021;28;20095;-43
2022/12/28 11:24:11;;;;;;;9.00;2.83;;;17.90;73.40;;;;;;5046337;28;20587;-40
2022/12/28 11:26:36;;;;;;;4.38;2.90;;;17.90;75.40;;;;;;5052872;28;20057;-46
2022/12/28 11:29:02;;;;;;;4.50;2.47;;;17.90;75.20;;;;;;5053864;28;20078;-41
2022/12/28 11:31:30;;;;;;;3.95;3.00;;;17.90;74.70;;;;;;5067861;28;20045;-41
2022/12/28 11:33:57;;;;;;;5.28;2.70;;;17.90;75.60;;;;;;5051937;28;20068;-43
2022/12/28 11:36:24;;;;;;;4.18;2.88;;;17.70;75.70;;;;;;5066112;28;20064;-39
2022/12/28 11:38:51;;;;;;;4.45;2.55;;;17.90;75.30;;;;;;5024471;28;20052;-39
2022/12/28 11:41:22;;;;;;;5.00;2.95;;;17.90;75.00;;;;;;5045688;28;20077;-39
2022/12/28 11:43:52;;;;;;;10.23;3.20;;;17.90;75.30;;;;;;5064251;28;20041;-40
2022/12/28 11:46:21;;;;;;;4.03;2.88;;;18.00;74.60;;;;;;5062755;28;20032;-41
2022/12/28 11:48:56;;;;;;;2.92;2.20;;;17.90;74.60;;;;;;5056727;28;20421;-40
2022/12/28 11:51:28;;;;;;;4.50;2.20;;;17.90;74.70;;;;;;5058681;28;20053;-41
2022/12/28 11:54:01;;;;;;;4.88;2.10;;;17.80;75.90;;;;;;5049749;28;20092;-39
2022/12/28 11:56:49;;;;;;;2.97;2.30;;;17.90;75.40;;;;;;5031931;28;20040;-42
2022/12/28 11:59:24;;;;;;;5.28;2.50;;;17.90;75.50;;;;;;5057125;28;20610;-38
2022/12/28 12:01:50;;;;;;;;;;;17.80;75.90;;;;;;5070136;28;20457;-40
2022/12/28 12:04:38;;;;;;;5.70;2.50;;;17.90;75.60;;;;;;5061439;28;19948;-42
2022/12/28 12:07:04;;;;;;;3.35;2.45;;;17.90;75.10;;;;;;5062641;28;20047;-40
2022/12/28 12:09:31;;;;;;;2.78;2.10;;;18.00;75.00;;;;;;5056502;28;20045;-42
2022/12/28 12:11:57;;;;;;;6.90;2.75;;;18.00;75.00;;;;;;5053326;28;20048;-38
2022/12/28 12:14:37;;;;;;;3.03;2.45;;;17.90;74.90;;;;;;5046450;28;20519;-41
2022/12/28 12:17:10;;;;;;;3.40;2.53;;;17.80;75.90;;;;;;5041711;28;20044;-40
2022/12/28 12:19:36;;;;;;;2.97;2.10;;;17.80;76.00;;;;;;5055491;28;21631;-41
2022/12/28 12:22:17;;;;;;;5.32;2.30;;;17.80;75.90;;;;;;5037452;28;20115;-42
2022/12/28 12:25:30;;;;;;;4.90;2.20;;;17.80;76.10;;;;;;5054333;28;20028;-41
2022/12/28 12:27:57;;;;;;;2.30;2.03;;;17.70;75.90;;;;;;5052481;28;20048;-41
2022/12/28 12:30:23;;;;;;;2.28;1.88;;;17.70;76.10;;;;;;5048731;28;20122;-41
2022/12/28 12:33:10;;;;;;;4.18;2.13;;;17.70;76.20;;;;;;5047016;28;20049;-43
2022/12/28 12:36:16;;;;;;;4.22;2.40;;;17.70;76.10;;;;;;5059115;28;20055;-41
2022/12/28 12:38:51;;;;;;;2.47;2.28;;;17.70;76.10;;;;;;4978580;28;20038;-43
2022/12/28 12:41:31;;;;;;;4.10;2.05;;;17.70;76.00;;;;;;4999650;28;20612;-40
2022/12/28 12:44:04;;;;;;;2.08;1.77;;;17.70;75.70;;;;;;4997466;28;20045;-38
2022/12/28 12:46:32;;;;;;;2.10;1.90;;;17.70;75.90;;;;;;5003333;28;20054;-34
2022/12/28 12:48:58;;;;;;;2.70;2.00;;;17.70;75.60;;;;;;4968900;28;20357;-48
2022/12/28 12:51:52;;;;;;;3.08;2.00;;;17.80;75.10;;;;;;4964978;28;20446;-45
2022/12/28 12:54:47;;;;;;;4.50;2.20;;;17.90;75.10;;;;;;4927644;28;20071;-42
2022/12/28 12:57:33;;;;;;;3.53;2.08;;;17.80;75.30;;;;;;4903048;28;20039;-41
2022/12/28 13:00:02;;;;;;;2.60;1.73;;;17.80;75.10;;;;;;4916220;28;20086;-41
2022/12/28 13:02:49;;;;;;;2.08;1.90;;;17.80;75.10;;;;;;4923667;28;20039;-41
2022/12/28 13:05:20;;;;;;;2.55;1.90;;;17.80;75.10;;;;;;4914473;28;20066;-42
2022/12/28 13:07:45;;;;;;;3.88;1.98;;;17.90;75.00;;;;;;4909025;28;20637;-41
2022/12/28 13:10:39;;;;;;;5.63;2.58;;;17.90;74.70;;;;;;4895429;28;20055;-39
2022/12/28 13:13:05;;;;;;;3.42;2.50;;;17.90;74.50;;;;;;4913062;28;20615;-44
2022/12/28 13:15:30;;;;;;;3.47;2.20;;;17.90;75.40;;;;;;4922731;28;20075;-42
2022/12/28 13:17:58;;;;;;;5.68;2.72;;;17.90;75.20;;;;;;4935348;28;20062;-41
2022/12/28 13:20:24;;;;;;;3.75;2.30;;;17.90;75.30;;;;;;4934697;28;20785;-42
2022/12/28 13:22:50;;;;;;;2.60;2.28;;;18.00;75.50;;;;;;4945107;28;20436;-41
2022/12/28 13:25:32;;;;;;;2.63;1.98;;;18.00;75.10;;;;;;4578378;28;10000250;-42
2022/12/28 13:27:59;;;;;;;4.25;2.20;;;18.00;76.10;;;;;;4943837;28;20795;-44